createdAt,value
2022-11-03T00:01:48.154Z,48.65
2022-11-03T00:04:16.709Z,47.58
2022-11-03T00:06:45.073Z,47.45
2022-11-03T00:09:14.396Z,45.72
2022-11-03T00:12:03.189Z,47.55
2022-11-03T00:14:43.784Z,49.30
2022-11-03T00:17:11.001Z,48.50
2022-11-03T00:19:38.227Z,47.08
2022-11-03T00:22:05.231Z,52.05
2022-11-03T00:24:32.238Z,48.65
2022-11-03T00:26:59.197Z,47.55
2022-11-03T00:29:46.168Z,47.95
2022-11-03T00:32:32.890Z,48.00
2022-11-03T00:34:59.814Z,47.53
2022-11-03T00:37:26.903Z,44.70
2022-11-03T00:39:53.891Z,46.83
2022-11-03T00:42:20.847Z,46.80
2022-11-03T00:44:47.825Z,46.22
2022-11-03T00:47:16.120Z,46.95
2022-11-03T00:49:43.945Z,45.00
2022-11-03T00:52:10.873Z,46.88
2022-11-03T00:54:37.809Z,47.05
2022-11-03T00:57:04.800Z,44.17
2022-11-03T00:59:52.179Z,45.75
2022-11-03T01:02:53.159Z,44.13
2022-11-03T01:06:13.227Z,45.10
2022-11-03T01:08:54.303Z,46.88
2022-11-03T01:11:53.191Z,49.30
2022-11-03T01:14:45.649Z,46.38
2022-11-03T01:17:21.124Z,45.65
2022-11-03T01:19:48.818Z,43.92
2022-11-03T01:22:16.968Z,47.42
2022-11-03T01:24:44.822Z,45.20
2022-11-03T01:27:18.757Z,48.05
2022-11-03T01:29:45.777Z,45.72
2022-11-03T01:32:33.204Z,46.53
2022-11-03T01:35:13.987Z,47.28
2022-11-03T01:37:41.018Z,46.30
2022-11-03T01:40:09.206Z,47.28
2022-11-03T01:42:36.261Z,48.58
2022-11-03T01:45:03.204Z,46.72
2022-11-03T01:47:34.470Z,47.38
2022-11-03T01:50:16.334Z,44.88
2022-11-03T01:52:56.221Z,48.72
2022-11-03T01:55:28.477Z,48.92
2022-11-03T01:58:04.567Z,50.60
2022-11-03T02:00:52.309Z,46.97
2022-11-03T02:03:57.221Z,46.95
2022-11-03T02:06:58.220Z,45.08
2022-11-03T02:09:33.724Z,47.45
2022-11-03T02:12:35.244Z,45.95
2022-11-03T02:15:37.200Z,46.60
2022-11-03T02:18:21.708Z,47.78
2022-11-03T02:20:58.780Z,46.47
2022-11-03T02:23:39.996Z,47.58
2022-11-03T02:26:10.252Z,42.38
2022-11-03T02:28:47.035Z,45.92
2022-11-03T02:31:24.316Z,47.40
2022-11-03T02:34:35.297Z,45.10
2022-11-03T02:37:25.846Z,49.20
2022-11-03T02:40:02.765Z,43.55
2022-11-03T02:42:31.646Z,45.95
2022-11-03T02:45:02.636Z,49.53
2022-11-03T02:47:31.653Z,49.67
2022-11-03T02:49:58.795Z,48.42
2022-11-03T02:52:39.479Z,50.40
2022-11-03T02:55:18.019Z,48.42
2022-11-03T02:58:00.430Z,44.15
2022-11-03T03:00:31.714Z,50.70
2022-11-03T03:03:26.252Z,47.47
2022-11-03T03:06:40.247Z,46.92
2022-11-03T03:10:29.264Z,44.05
2022-11-03T03:13:32.257Z,47.53
2022-11-03T03:16:21.473Z,46.88
2022-11-03T03:19:02.113Z,46.47
2022-11-03T03:21:40.914Z,49.05
2022-11-03T03:24:15.833Z,45.03
2022-11-03T03:26:49.637Z,47.67
2022-11-03T03:29:28.382Z,48.88
2022-11-03T03:31:59.281Z,50.08
2022-11-03T03:34:36.244Z,51.42
2022-11-03T03:37:06.621Z,50.70
2022-11-03T03:39:57.279Z,51.95
2022-11-03T03:42:40.277Z,57.60
2022-11-03T03:45:10.162Z,55.33
2022-11-03T03:47:37.312Z,55.15
2022-11-03T03:50:04.733Z,53.50
2022-11-03T03:52:34.869Z,54.55
2022-11-03T03:55:01.978Z,54.67
2022-11-03T03:57:31.783Z,52.67
2022-11-03T03:59:58.659Z,56.78
2022-11-03T04:02:25.784Z,54.58
2022-11-03T04:04:52.785Z,52.25
2022-11-03T04:07:42.511Z,52.42
2022-11-03T04:10:34.297Z,56.50
2022-11-03T04:13:53.316Z,54.83
2022-11-03T04:16:52.674Z,51.70
2022-11-03T04:19:38.042Z,50.75
2022-11-03T04:22:16.922Z,51.13
2022-11-03T04:24:51.860Z,54.88
2022-11-03T04:27:18.890Z,51.65
2022-11-03T04:30:06.332Z,52.28
2022-11-03T04:32:48.584Z,52.88
2022-11-03T04:35:22.401Z,52.67
2022-11-03T04:37:55.557Z,48.88
2022-11-03T04:40:22.822Z,50.63
2022-11-03T04:42:50.084Z,52.75
2022-11-03T04:45:31.257Z,49.92
2022-11-03T04:48:02.168Z,53.97
2022-11-03T04:50:29.144Z,53.05
2022-11-03T04:52:58.328Z,53.50
2022-11-03T04:55:26.690Z,53.17
2022-11-03T04:58:05.052Z,51.55
2022-11-03T05:00:32.116Z,53.85
2022-11-03T05:02:59.119Z,56.78
2022-11-03T05:05:26.820Z,56.08
2022-11-03T05:07:59.199Z,50.92
2022-11-03T05:10:46.372Z,52.40
2022-11-03T05:13:47.326Z,51.03
2022-11-03T05:16:28.713Z,51.42
2022-11-03T05:18:56.653Z,56.22
2022-11-03T05:21:27.043Z,54.67
2022-11-03T05:23:58.344Z,55.40
2022-11-03T05:26:48.423Z,57.15
2022-11-03T05:29:38.810Z,56.83
2022-11-03T05:32:14.901Z,64.00
2022-11-03T05:34:44.062Z,63.67
2022-11-03T05:37:27.056Z,63.08
2022-11-03T05:39:59.387Z,63.17
2022-11-03T05:42:51.441Z,62.30
2022-11-03T05:45:34.398Z,67.57
2022-11-03T05:48:03.707Z,68.72
2022-11-03T05:50:35.787Z,71.28
2022-11-03T05:53:25.801Z,70.13
2022-11-03T05:55:53.694Z,72.80
2022-11-03T05:58:38.434Z,75.43
2022-11-03T06:01:17.068Z,73.47
2022-11-03T06:03:44.579Z,73.78
2022-11-03T06:06:35.058Z,75.07
2022-11-03T06:09:09.486Z,75.65
2022-11-03T06:11:57.374Z,72.07
2022-11-03T06:14:58.452Z,73.05
2022-11-03T06:17:39.312Z,73.70
2022-11-03T06:20:09.334Z,74.22
2022-11-03T06:22:56.616Z,73.45
2022-11-03T06:25:57.436Z,71.07
2022-11-03T06:28:40.331Z,76.78
2022-11-03T06:31:22.038Z,72.72
2022-11-03T06:33:53.206Z,71.75
2022-11-03T06:36:23.382Z,73.35
2022-11-03T06:39:09.846Z,71.80
2022-11-03T06:41:37.227Z,76.60
2022-11-03T06:44:41.394Z,78.00
2022-11-03T06:47:25.439Z,75.85
2022-11-03T06:50:13.483Z,76.40
2022-11-03T06:52:54.919Z,77.55
2022-11-03T06:55:40.630Z,78.50
2022-11-03T06:58:30.914Z,77.03
2022-11-03T07:01:35.564Z,74.10
2022-11-03T07:04:22.366Z,78.05
2022-11-03T07:06:53.188Z,73.67
2022-11-03T07:09:26.048Z,77.72
2022-11-03T07:12:14.582Z,77.65
2022-11-03T07:14:55.192Z,74.68
2022-11-03T07:17:24.198Z,75.22
2022-11-03T07:19:51.247Z,74.82
2022-11-03T07:22:22.874Z,77.85
2022-11-03T07:24:56.798Z,72.63
2022-11-03T07:27:28.800Z,73.60
2022-11-03T07:30:20.793Z,75.22
2022-11-03T07:32:50.941Z,73.25
2022-11-03T07:35:18.093Z,77.22
2022-11-03T07:37:46.822Z,73.70
2022-11-03T07:40:18.490Z,75.15
2022-11-03T07:42:45.501Z,72.47
2022-11-03T07:45:41.452Z,73.57
2022-11-03T07:48:50.466Z,73.80
2022-11-03T07:51:37.535Z,72.03
2022-11-03T07:54:34.472Z,71.65
2022-11-03T07:57:35.377Z,70.45
2022-11-03T08:00:29.461Z,71.22
2022-11-03T08:03:25.344Z,68.65
2022-11-03T08:05:52.220Z,66.60
2022-11-03T08:08:19.321Z,65.45
2022-11-03T08:11:06.545Z,64.43
2022-11-03T08:13:47.112Z,61.75
2022-11-03T08:16:14.315Z,64.18
2022-11-03T08:18:41.512Z,64.25
2022-11-03T08:21:28.473Z,66.28
2022-11-03T08:24:09.476Z,64.43
2022-11-03T08:26:56.441Z,62.70
2022-11-03T08:29:37.014Z,60.05
2022-11-03T08:32:04.220Z,60.45
2022-11-03T08:34:31.279Z,57.17
2022-11-03T08:36:58.370Z,59.10
2022-11-03T08:39:25.374Z,57.58
2022-11-03T08:41:52.476Z,58.70
2022-11-03T08:44:39.472Z,57.25
2022-11-03T08:47:20.127Z,57.20
2022-11-03T08:50:00.499Z,57.13
2022-11-03T08:53:01.489Z,58.22
2022-11-03T08:55:42.022Z,53.65
2022-11-03T08:58:09.943Z,54.85
2022-11-03T09:00:57.557Z,54.92
2022-11-03T09:03:58.591Z,53.70
2022-11-03T09:06:39.268Z,54.28
2022-11-03T09:12:13.517Z,53.03
2022-11-03T09:15:14.683Z,53.03
2022-11-03T09:18:15.632Z,54.78
2022-11-03T09:20:56.354Z,54.30
2022-11-03T09:23:23.293Z,52.35
2022-11-03T09:25:50.645Z,46.15
2022-11-03T09:28:18.262Z,39.15
2022-11-03T09:30:45.236Z,38.38
2022-11-03T09:33:12.287Z,34.00
2022-11-03T09:35:39.524Z,35.78
2022-11-03T09:38:08.228Z,30.92
2022-11-03T09:40:36.395Z,33.78
2022-11-03T09:43:03.889Z,33.17
2022-11-03T09:45:32.134Z,34.35
2022-11-03T09:47:59.592Z,34.30
2022-11-03T09:50:39.894Z,35.60
2022-11-03T09:53:33.506Z,36.67
2022-11-03T09:56:36.487Z,36.70
2022-11-03T09:59:37.535Z,37.33
2022-11-03T10:02:39.964Z,38.80
2022-11-03T10:05:25.677Z,37.50
2022-11-03T10:08:05.116Z,37.63
2022-11-03T10:10:53.523Z,37.20
2022-11-03T10:13:39.025Z,36.28
2022-11-03T10:16:12.106Z,35.03
2022-11-03T10:18:39.233Z,34.63
2022-11-03T10:21:31.546Z,34.80
2022-11-03T10:24:13.604Z,33.13
2022-11-03T10:26:48.315Z,32.05
2022-11-03T10:29:22.415Z,32.20
2022-11-03T10:31:52.041Z,30.45
2022-11-03T10:34:39.334Z,29.73
2022-11-03T10:37:29.513Z,33.22
2022-11-03T10:40:47.917Z,29.25
2022-11-03T10:43:15.665Z,31.20
2022-11-03T10:45:42.765Z,29.80
2022-11-03T10:48:11.458Z,31.70
2022-11-03T10:50:42.215Z,33.05
2022-11-03T10:53:20.738Z,32.05
2022-11-03T10:55:47.945Z,30.75
2022-11-03T10:58:15.135Z,32.10
2022-11-03T11:01:02.580Z,30.52
2022-11-03T11:04:03.650Z,31.48
2022-11-03T11:07:04.574Z,30.15
2022-11-03T11:10:07.599Z,27.92
2022-11-03T11:13:23.269Z,29.10
2022-11-03T11:16:05.599Z,31.23
2022-11-03T11:18:46.242Z,28.55
2022-11-03T11:21:16.445Z,29.08
2022-11-03T11:23:44.689Z,40.80
2022-11-03T11:26:27.030Z,32.85
2022-11-03T11:29:15.862Z,31.10
2022-11-03T11:31:44.439Z,30.38
2022-11-03T11:34:12.417Z,33.03
2022-11-03T11:36:42.095Z,31.98
2022-11-03T11:39:42.650Z,32.30
2022-11-03T11:42:23.244Z,30.77
2022-11-03T11:44:50.785Z,30.60
2022-11-03T11:47:24.146Z,31.42
2022-11-03T11:50:15.567Z,29.98
2022-11-03T11:52:58.812Z,27.75
2022-11-03T11:55:50.576Z,27.88
2022-11-03T11:58:51.074Z,28.52
2022-11-03T12:01:45.665Z,29.42
2022-11-03T12:04:49.584Z,28.98
2022-11-03T12:07:50.633Z,26.05
2022-11-03T12:10:51.662Z,27.70
2022-11-03T12:13:57.559Z,29.45
2022-11-03T12:16:38.247Z,23.90
2022-11-03T12:19:34.606Z,21.83
2022-11-03T12:22:02.796Z,22.63
2022-11-03T12:24:52.648Z,22.75
2022-11-03T12:27:34.519Z,23.02
2022-11-03T12:30:09.069Z,19.33
2022-11-03T12:32:58.669Z,20.50
2022-11-03T12:35:47.013Z,19.92
2022-11-03T12:38:16.762Z,19.98
2022-11-03T12:40:53.889Z,20.00
2022-11-03T12:43:24.262Z,22.90
2022-11-03T12:45:51.325Z,22.70
2022-11-03T12:48:27.605Z,21.40
2022-11-03T12:50:54.617Z,20.65
2022-11-03T12:53:21.491Z,25.27
2022-11-03T12:55:48.605Z,22.50
2022-11-03T12:58:28.783Z,22.90
2022-11-03T13:01:29.693Z,26.42
2022-11-03T13:04:30.669Z,23.95
2022-11-03T13:07:11.401Z,23.92
2022-11-03T13:09:45.616Z,24.45
2022-11-03T13:12:47.607Z,21.85
2022-11-03T13:15:18.485Z,22.83
2022-11-03T13:18:11.749Z,18.98
2022-11-03T13:20:34.282Z,21.02
2022-11-03T13:23:02.012Z,19.60
2022-11-03T13:25:49.698Z,17.65
2022-11-03T13:28:30.253Z,21.33
2022-11-03T13:30:57.097Z,15.10
2022-11-03T13:33:24.277Z,20.08
2022-11-03T13:35:51.481Z,19.02
2022-11-03T13:38:18.747Z,19.60
2022-11-03T13:41:08.151Z,23.70
2022-11-03T13:43:33.154Z,22.02
2022-11-03T13:46:02.619Z,24.80
2022-11-03T13:49:43.907Z,25.92
2022-11-03T13:52:10.646Z,22.30
2022-11-03T14:05:14.800Z,22.42
2022-11-03T14:08:15.883Z,23.05
2022-11-03T14:11:34.652Z,25.80
2022-11-03T14:14:15.434Z,21.98
2022-11-03T14:16:42.819Z,24.65
2022-11-03T14:19:10.082Z,24.70
2022-11-03T14:21:57.855Z,22.85
2022-11-03T14:24:38.216Z,24.48
2022-11-03T14:27:05.491Z,24.25
2022-11-03T14:29:32.743Z,24.08
2022-11-03T14:32:19.769Z,25.45
2022-11-03T14:35:00.473Z,25.08
2022-11-03T14:37:28.888Z,24.95
2022-11-03T14:39:56.018Z,23.30
2022-11-03T14:42:23.301Z,19.60
2022-11-03T14:44:50.631Z,21.67
2022-11-03T14:47:37.671Z,21.23
2022-11-03T14:50:38.758Z,20.77
2022-11-03T14:53:39.672Z,20.40
2022-11-03T14:56:40.733Z,22.27
2022-11-03T14:59:41.672Z,21.48
2022-11-03T15:02:50.683Z,20.95
2022-11-03T15:05:51.723Z,17.83
2022-11-03T15:08:26.957Z,18.77
2022-11-03T15:11:14.699Z,19.85
2022-11-03T15:14:15.720Z,21.48
2022-11-03T15:16:56.275Z,18.67
2022-11-03T15:19:23.451Z,20.98
2022-11-03T15:21:51.339Z,22.50
2022-11-03T15:27:05.435Z,24.83
2022-11-03T15:30:01.785Z,26.30
2022-11-03T15:33:02.102Z,25.70
2022-11-03T15:35:42.409Z,25.55
2022-11-03T15:38:09.686Z,25.75
2022-11-03T15:40:36.810Z,27.80
2022-11-03T15:43:06.105Z,26.55
2022-11-03T15:45:33.597Z,26.38
2022-11-03T15:48:21.913Z,28.00
2022-11-03T15:51:23.753Z,25.98
2022-11-03T15:54:04.443Z,29.02
2022-11-03T15:56:31.502Z,26.83
2022-11-03T15:58:58.613Z,29.83
2022-11-03T16:01:49.871Z,28.00
2022-11-03T16:04:50.788Z,28.50
2022-11-03T16:07:51.733Z,30.83
2022-11-03T16:10:57.626Z,32.25
2022-11-03T16:13:42.072Z,32.28
2022-11-03T16:16:10.134Z,30.95
2022-11-03T16:18:38.268Z,30.63
2022-11-03T16:21:05.583Z,31.48
2022-11-03T16:23:32.549Z,32.63
2022-11-03T16:25:59.754Z,31.27
2022-11-03T16:28:26.696Z,31.60
2022-11-03T16:30:54.730Z,34.33
2022-11-03T16:33:41.754Z,34.50
2022-11-03T16:36:42.758Z,35.50
2022-11-03T16:39:23.892Z,35.33
2022-11-03T16:42:11.872Z,36.30
2022-11-03T16:44:52.352Z,36.35
2022-11-03T16:47:19.599Z,37.67
2022-11-03T16:49:46.638Z,40.58
2022-11-03T16:52:13.811Z,40.72
2022-11-03T16:54:40.792Z,42.08
2022-11-03T16:57:27.847Z,41.45
2022-11-03T17:00:33.748Z,40.63
2022-11-03T17:03:27.990Z,42.33
2022-11-03T17:06:21.867Z,45.40
2022-11-03T17:09:02.908Z,40.25
2022-11-03T17:11:49.752Z,48.00
2022-11-03T17:14:54.032Z,47.53
2022-11-03T17:17:37.912Z,47.50
2022-11-03T17:20:06.065Z,54.38
2022-11-03T17:22:33.194Z,51.22
2022-11-03T17:25:01.785Z,53.42
2022-11-03T17:27:38.354Z,55.83
2022-11-03T17:30:08.995Z,55.97
2022-11-03T17:32:39.095Z,56.00
2022-11-03T17:35:38.704Z,52.40
2022-11-03T17:38:13.639Z,54.58
2022-11-03T17:40:46.199Z,58.45
2022-11-03T17:43:25.473Z,60.97
2022-11-03T17:46:12.866Z,58.08
2022-11-03T17:49:13.825Z,62.92
2022-11-03T17:51:56.302Z,59.92
2022-11-03T17:54:24.368Z,62.95
2022-11-03T17:57:13.800Z,63.67
2022-11-03T18:00:14.840Z,66.47
2022-11-03T18:03:15.877Z,61.72
2022-11-03T18:05:56.463Z,65.70
2022-11-03T18:08:43.807Z,67.60
2022-11-03T18:12:03.786Z,74.10
2022-11-03T18:15:04.832Z,67.40
2022-11-03T18:18:06.007Z,69.35
2022-11-03T18:20:53.142Z,69.32
2022-11-03T18:23:23.565Z,72.80
2022-11-03T18:25:51.252Z,73.20
2022-11-03T18:28:18.857Z,72.20
2022-11-03T18:30:48.522Z,71.57
2022-11-03T18:33:21.042Z,75.95
2022-11-03T18:35:48.620Z,76.47
2022-11-03T18:38:17.176Z,75.13
2022-11-03T18:40:44.801Z,76.32
2022-11-03T18:43:13.928Z,81.03
2022-11-03T18:45:41.005Z,76.30
2022-11-03T18:48:28.895Z,76.40
2022-11-03T18:51:29.825Z,78.65
2022-11-03T18:54:14.688Z,80.75
2022-11-03T18:56:42.069Z,73.13
2022-11-03T18:59:31.874Z,81.25
2022-11-03T19:02:35.949Z,82.30
2022-11-03T19:05:12.384Z,80.55
2022-11-03T19:07:42.502Z,79.47
2022-11-03T19:10:34.870Z,78.38
2022-11-03T19:13:42.954Z,78.57
2022-11-03T19:17:01.977Z,77.20
2022-11-03T19:19:46.465Z,75.38
2022-11-03T19:22:19.161Z,81.68
2022-11-03T19:25:05.874Z,82.75
2022-11-03T19:27:48.631Z,74.70
2022-11-03T19:30:35.849Z,83.10
2022-11-03T19:33:40.918Z,80.88
2022-11-03T19:36:21.842Z,79.90
2022-11-03T19:39:08.934Z,81.93
2022-11-03T19:42:31.849Z,80.55
2022-11-03T19:45:18.819Z,85.40
2022-11-03T19:48:18.349Z,82.82
